createdAt,value
2022-12-06T00:01:13.195Z,68.60
2022-12-06T00:03:44.396Z,66.60
2022-12-06T00:06:17.053Z,71.80
2022-12-06T00:08:47.443Z,67.70
2022-12-06T00:13:52.879Z,67.40
2022-12-06T00:16:21.996Z,60.70
2022-12-06T00:18:50.883Z,62.10
2022-12-06T00:21:24.909Z,66.50
2022-12-06T00:23:56.917Z,68.00
2022-12-06T00:26:26.388Z,76.90
2022-12-06T00:28:57.994Z,73.00
2022-12-06T00:31:29.340Z,73.70
2022-12-06T00:34:00.040Z,69.20
2022-12-06T00:36:32.885Z,65.40
2022-12-06T00:39:08.779Z,68.50
2022-12-06T00:41:37.639Z,69.40
2022-12-06T00:44:06.784Z,76.10
2022-12-06T00:46:36.862Z,69.10
2022-12-06T00:49:07.894Z,72.00
2022-12-06T00:51:38.131Z,65.70
2022-12-06T00:54:08.513Z,73.90
2022-12-06T00:56:37.802Z,65.30
2022-12-06T00:59:06.867Z,78.50
2022-12-06T01:01:36.766Z,76.50
2022-12-06T01:04:07.527Z,69.90
2022-12-06T01:09:10.230Z,70.70
2022-12-06T01:11:39.735Z,74.00
2022-12-06T01:14:08.419Z,73.10
2022-12-06T01:16:37.310Z,70.60
2022-12-06T01:19:06.825Z,72.10
2022-12-06T01:21:35.521Z,73.00
2022-12-06T01:24:04.565Z,82.00
2022-12-06T01:26:35.119Z,71.80
2022-12-06T01:31:38.172Z,75.60
2022-12-06T01:34:14.575Z,72.90
2022-12-06T01:36:44.522Z,72.20
2022-12-06T01:39:14.218Z,74.80
2022-12-06T01:41:43.492Z,76.60
2022-12-06T01:44:39.839Z,73.90
2022-12-06T01:47:17.360Z,71.50
2022-12-06T01:49:53.126Z,64.30
2022-12-06T01:52:28.597Z,74.70
2022-12-06T01:55:00.989Z,72.70
2022-12-06T01:57:32.326Z,66.70
2022-12-06T02:00:02.521Z,72.30
2022-12-06T02:02:32.316Z,71.90
2022-12-06T02:05:03.465Z,74.20
2022-12-06T02:07:33.275Z,69.40
2022-12-06T02:10:05.074Z,74.50
2022-12-06T02:12:35.760Z,81.20
2022-12-06T02:15:08.074Z,67.50
2022-12-06T02:18:08.249Z,69.00
2022-12-06T02:23:37.640Z,73.70
2022-12-06T02:26:26.881Z,67.50
2022-12-06T02:29:08.483Z,65.60
2022-12-06T02:32:01.370Z,67.00
2022-12-06T02:34:47.265Z,69.90
2022-12-06T02:37:23.466Z,69.00
2022-12-06T02:39:59.007Z,64.30
2022-12-06T02:42:51.158Z,75.00
2022-12-06T02:45:24.693Z,68.20
2022-12-06T02:47:58.931Z,72.10
2022-12-06T02:50:40.961Z,72.40
2022-12-06T02:53:13.690Z,76.30
2022-12-06T02:55:44.449Z,67.60
2022-12-06T02:58:14.138Z,72.30
2022-12-06T03:01:03.083Z,68.60
2022-12-06T03:12:16.975Z,60.40
2022-12-06T03:15:07.908Z,65.50
2022-12-06T03:17:55.279Z,72.80
2022-12-06T03:20:46.870Z,62.00
2022-12-06T03:23:29.525Z,64.00
2022-12-06T03:26:01.947Z,71.30
2022-12-06T03:28:31.822Z,69.30
2022-12-06T03:31:06.011Z,64.50
2022-12-06T03:33:42.928Z,69.50
2022-12-06T03:36:20.824Z,60.70
2022-12-06T03:39:03.250Z,68.50
2022-12-06T03:41:57.654Z,63.50
2022-12-06T03:44:29.695Z,57.30
2022-12-06T03:47:08.832Z,62.30
2022-12-06T03:50:06.183Z,68.80
2022-12-06T03:52:44.400Z,65.00
2022-12-06T03:55:30.596Z,65.80
2022-12-06T03:58:29.185Z,66.10
2022-12-06T04:01:19.712Z,63.90
2022-12-06T04:04:35.710Z,62.60
2022-12-06T04:07:37.846Z,66.80
2022-12-06T04:10:30.188Z,65.70
2022-12-06T04:13:25.468Z,56.60
2022-12-06T04:16:34.880Z,68.40
2022-12-06T04:19:40.255Z,57.10
2022-12-06T04:22:51.310Z,59.00
2022-12-06T04:25:43.530Z,67.80
2022-12-06T04:28:58.248Z,72.10
2022-12-06T04:32:08.777Z,60.20
2022-12-06T04:35:34.008Z,63.80
2022-12-06T04:42:48.750Z,59.90
2022-12-06T04:52:36.443Z,57.30
2022-12-06T04:59:38.424Z,59.90
2022-12-06T05:02:53.130Z,61.70
2022-12-06T05:06:15.310Z,60.30
2022-12-06T05:16:12.078Z,64.90
2022-12-06T05:19:10.154Z,57.60
2022-12-06T05:22:01.133Z,62.70
2022-12-06T05:24:52.819Z,53.20
2022-12-06T05:27:49.856Z,60.70
2022-12-06T05:30:36.162Z,53.80
2022-12-06T05:33:23.701Z,52.30
2022-12-06T05:36:29.286Z,48.40
2022-12-06T05:39:35.806Z,49.70
2022-12-06T05:42:28.240Z,52.70
2022-12-06T05:45:41.394Z,50.30
2022-12-06T05:57:30.038Z,48.80
2022-12-06T06:04:43.563Z,52.60
2022-12-06T06:07:19.087Z,47.50
2022-12-06T06:09:53.843Z,55.50
2022-12-06T06:12:23.873Z,48.50
2022-12-06T06:15:11.319Z,53.50
2022-12-06T06:36:45.739Z,37.40
2022-12-06T06:39:52.707Z,44.80
2022-12-06T06:43:13.137Z,43.40
2022-12-06T06:46:19.230Z,49.60
2022-12-06T06:51:47.662Z,39.30
2022-12-06T06:54:37.225Z,41.80
2022-12-06T06:57:17.411Z,42.80
2022-12-06T06:59:52.340Z,47.70
2022-12-06T07:02:25.845Z,42.00
2022-12-06T07:04:56.202Z,41.90
2022-12-06T07:07:26.385Z,42.70
2022-12-06T07:10:03.416Z,37.10
2022-12-06T07:12:47.217Z,46.30
2022-12-06T07:15:37.137Z,48.90
2022-12-06T07:18:43.662Z,43.10
2022-12-06T07:21:19.152Z,41.90
2022-12-06T07:24:04.014Z,38.50
2022-12-06T07:26:53.307Z,45.50
2022-12-06T07:29:32.381Z,43.20
2022-12-06T07:34:50.769Z,43.20
2022-12-06T07:37:32.052Z,37.70
2022-12-06T07:40:14.956Z,41.60
2022-12-06T07:43:11.982Z,45.40
2022-12-06T07:45:55.178Z,43.90
2022-12-06T07:48:39.137Z,46.00
2022-12-06T07:51:20.190Z,45.10
2022-12-06T07:54:07.628Z,51.80
2022-12-06T07:56:52.078Z,51.50
2022-12-06T08:02:06.086Z,52.30
2022-12-06T08:04:53.411Z,55.70
2022-12-06T08:08:00.556Z,60.60
2022-12-06T08:10:51.072Z,62.30
2022-12-06T08:13:41.410Z,61.90
2022-12-06T08:16:32.534Z,61.90
2022-12-06T08:19:25.197Z,58.70
2022-12-06T08:22:15.565Z,59.20
2022-12-06T08:25:03.249Z,64.70
2022-12-06T08:27:40.655Z,74.10
2022-12-06T08:30:27.717Z,59.10
2022-12-06T08:33:16.144Z,66.30
2022-12-06T08:36:08.020Z,61.40
2022-12-06T08:39:02.403Z,69.50
2022-12-06T08:41:59.445Z,69.20
2022-12-06T08:44:42.183Z,70.10
2022-12-06T08:47:26.302Z,68.80
2022-12-06T08:50:17.547Z,64.20
2022-12-06T08:53:12.889Z,64.60
2022-12-06T08:56:16.410Z,69.40
2022-12-06T08:59:57.425Z,70.80
2022-12-06T09:02:53.015Z,62.40
2022-12-06T09:05:48.415Z,64.10
2022-12-06T09:08:41.200Z,69.60
2022-12-06T09:11:58.904Z,59.40
2022-12-06T09:14:48.315Z,64.60
2022-12-06T09:17:37.914Z,68.40
2022-12-06T09:20:19.738Z,65.00
2022-12-06T09:22:49.310Z,61.40
2022-12-06T09:25:18.858Z,65.70
2022-12-06T09:27:51.733Z,64.30
2022-12-06T09:30:28.782Z,66.40
2022-12-06T09:33:16.142Z,70.60
2022-12-06T09:36:41.466Z,65.30
2022-12-06T09:40:35.387Z,58.30
2022-12-06T10:11:37.524Z,63.70
2022-12-06T10:15:46.206Z,77.10
2022-12-06T10:18:36.765Z,79.50
2022-12-06T10:25:32.729Z,73.30
2022-12-06T10:28:34.843Z,73.20
2022-12-06T10:31:24.868Z,73.30
2022-12-06T10:34:01.692Z,74.40
2022-12-06T10:36:34.837Z,76.70
2022-12-06T10:39:26.545Z,76.00
2022-12-06T10:42:06.741Z,84.10
2022-12-06T10:44:44.325Z,84.70
2022-12-06T10:47:33.680Z,67.90
2022-12-06T10:50:23.773Z,85.00
2022-12-06T10:53:14.683Z,78.50
2022-12-06T10:58:35.954Z,80.00
2022-12-06T11:01:16.467Z,83.90
2022-12-06T11:04:12.754Z,79.70
2022-12-06T11:06:54.883Z,79.70
2022-12-06T11:09:41.617Z,80.70
2022-12-06T11:12:26.621Z,86.20
2022-12-06T11:15:25.109Z,82.40
2022-12-06T11:18:05.027Z,76.90
2022-12-06T11:20:42.001Z,79.80
2022-12-06T11:23:38.532Z,83.30
2022-12-06T11:26:31.203Z,93.10
2022-12-06T11:29:08.062Z,88.90
2022-12-06T11:31:42.716Z,84.80
2022-12-06T11:34:52.267Z,86.00
2022-12-06T11:37:30.132Z,76.90
2022-12-06T11:40:20.838Z,88.00
2022-12-06T11:42:49.710Z,83.00
2022-12-06T11:45:25.938Z,82.90
2022-12-06T11:47:57.659Z,81.70
2022-12-06T11:50:31.284Z,77.40
2022-12-06T11:53:08.038Z,81.40
2022-12-06T11:55:42.562Z,81.90
2022-12-06T11:58:22.610Z,88.00
2022-12-06T12:01:03.217Z,81.50
2022-12-06T12:03:36.060Z,86.40
2022-12-06T12:06:17.056Z,87.10
2022-12-06T12:08:57.032Z,88.90
2022-12-06T12:11:32.415Z,96.40
2022-12-06T12:14:03.761Z,99.30
2022-12-06T12:16:43.407Z,92.20
2022-12-06T12:19:39.759Z,95.10
2022-12-06T12:22:33.189Z,100.70
2022-12-06T12:25:23.096Z,96.40
2022-12-06T12:27:57.555Z,104.20
2022-12-06T12:30:37.556Z,108.80
2022-12-06T12:33:06.929Z,96.10
2022-12-06T12:35:49.877Z,108.20
2022-12-06T12:38:47.987Z,95.20
2022-12-06T12:41:29.382Z,104.50
2022-12-06T12:47:19.179Z,98.80
2022-12-06T12:50:05.723Z,103.60
2022-12-06T12:52:41.346Z,108.40
2022-12-06T12:55:13.180Z,98.00
2022-12-06T12:57:46.354Z,102.90
2022-12-06T13:00:28.661Z,109.00
2022-12-06T13:03:18.116Z,104.30
2022-12-06T13:05:57.935Z,110.30
2022-12-06T13:08:33.895Z,108.30
2022-12-06T13:11:05.443Z,117.40
2022-12-06T13:13:48.552Z,106.40
2022-12-06T13:16:37.089Z,111.40
2022-12-06T13:19:06.530Z,112.60
2022-12-06T13:21:39.101Z,113.30
2022-12-06T13:24:31.906Z,115.20
2022-12-06T13:28:31.701Z,105.70
2022-12-06T13:30:56.637Z,116.30
2022-12-06T13:33:38.138Z,102.60
2022-12-06T13:36:19.384Z,111.10
2022-12-06T13:38:51.506Z,101.30
2022-12-06T13:41:54.208Z,106.70
2022-12-06T13:44:53.531Z,105.90
2022-12-06T13:47:32.767Z,111.10
2022-12-06T13:50:17.537Z,99.30
2022-12-06T13:52:46.202Z,103.30
2022-12-06T13:55:30.728Z,106.70
2022-12-06T13:58:11.415Z,110.30
2022-12-06T14:00:42.675Z,100.10
2022-12-06T14:03:14.375Z,107.90
2022-12-06T14:06:15.508Z,105.60
2022-12-06T14:08:59.744Z,106.90
2022-12-06T14:11:32.952Z,96.90
2022-12-06T14:14:19.058Z,109.80
2022-12-06T14:17:00.796Z,101.80
2022-12-06T14:19:40.094Z,107.70
2022-12-06T14:22:25.672Z,103.70
2022-12-06T14:25:04.409Z,103.90
2022-12-06T14:27:45.556Z,102.40
2022-12-06T14:30:14.886Z,118.30
2022-12-06T14:32:50.595Z,110.10
2022-12-06T14:35:27.127Z,106.80
2022-12-06T14:38:06.846Z,108.40
2022-12-06T14:41:08.712Z,109.30
2022-12-06T14:43:40.806Z,121.50
2022-12-06T14:46:19.803Z,117.40
2022-12-06T14:49:15.259Z,108.30
2022-12-06T14:51:47.789Z,102.40
2022-12-06T14:54:42.923Z,103.40
2022-12-06T14:57:36.667Z,109.00
2022-12-06T15:00:20.796Z,111.10
2022-12-06T15:03:23.288Z,110.00
2022-12-06T15:06:13.282Z,98.70
2022-12-06T15:09:07.152Z,96.00
2022-12-06T15:14:49.073Z,100.30
2022-12-06T15:17:23.066Z,106.70
2022-12-06T15:19:53.907Z,98.30
2022-12-06T15:22:25.831Z,93.80
2022-12-06T15:25:00.615Z,104.80
2022-12-06T15:27:35.043Z,104.80
2022-12-06T15:30:10.001Z,103.80
2022-12-06T15:32:52.518Z,92.50
2022-12-06T15:35:28.670Z,91.40
2022-12-06T15:37:58.398Z,87.30
2022-12-06T15:40:35.301Z,101.50
2022-12-06T15:43:33.343Z,94.10
2022-12-06T15:46:04.648Z,99.20
2022-12-06T15:48:47.029Z,92.00
2022-12-06T15:51:27.152Z,82.10
2022-12-06T15:53:57.810Z,84.80
2022-12-06T15:56:33.609Z,83.90
2022-12-06T15:59:04.635Z,74.60
2022-12-06T16:01:41.897Z,80.70
2022-12-06T16:09:17.857Z,81.20
2022-12-06T16:11:47.069Z,77.40
2022-12-06T16:40:34.882Z,64.50
2022-12-06T16:43:04.314Z,69.80
2022-12-06T16:45:40.554Z,67.20
2022-12-06T16:48:16.067Z,63.90
2022-12-06T16:50:48.193Z,68.60
2022-12-06T16:53:26.932Z,65.70
2022-12-06T16:56:45.271Z,65.40
2022-12-06T16:59:24.958Z,68.40
2022-12-06T17:01:58.225Z,72.60
2022-12-06T17:04:47.040Z,69.70
2022-12-06T17:12:04.264Z,68.80
2022-12-06T17:14:45.698Z,67.50
2022-12-06T17:17:32.534Z,68.30
2022-12-06T17:20:11.375Z,64.40
2022-12-06T17:22:56.250Z,67.20
2022-12-06T17:29:14.826Z,64.30
2022-12-06T17:31:55.926Z,62.10
2022-12-06T17:37:54.162Z,64.00
2022-12-06T17:40:30.681Z,69.00
2022-12-06T17:43:02.033Z,60.10
2022-12-06T17:45:38.622Z,59.70
2022-12-06T17:48:14.380Z,59.20
2022-12-06T17:50:50.493Z,66.10
2022-12-06T17:53:38.068Z,65.50
2022-12-06T17:56:53.335Z,73.10
2022-12-06T17:59:34.634Z,63.50
2022-12-06T18:13:29.467Z,71.20
2022-12-06T18:16:20.587Z,68.80
2022-12-06T20:50:43.932Z,101.30
2022-12-06T20:54:08.563Z,99.40
2022-12-06T21:30:44.051Z,70.50
2022-12-06T21:33:53.826Z,70.20
